Time;durP1;ratioP1;P1;durP2;ratioP2;P2;SDS_P1;SDS_P2;PMS_P1;PMS_P2;Temp;Humidity;BMP_temperature;BMP_pressure;BME280_temperature;BME280_humidity;BME280_pressure;Samples;Min_cycle;Max_cycle;Signal;HPM_P1;HPM_P2
2022/03/09 00:02:04;;;;;;;;;;;;;;;-2.05;61.99;101821.06;1730143;82;20157;-70
2022/03/09 00:04:31;;;;;;;;;;;;;;;-2.07;61.95;101815.04;1708052;82;21605;-70
2022/03/09 00:06:56;;;;;;;;;;;;;;;-2.12;62.02;101806.34;1724603;82;20230;-70
2022/03/09 00:09:28;;;;;;;;;;;;;;;-2.18;62.09;101808.16;1729642;82;20202;-70
2022/03/09 00:11:54;;;;;;;;;;;;;;;-2.22;62.13;101801.17;1730018;82;20349;-70
2022/03/09 00:14:19;;;;;;;;;;;;;;;-2.22;62.15;101801.57;1724381;82;21190;-70
2022/03/09 00:16:45;;;;;;;;;;;;;;;-2.23;62.13;101797.30;1730066;82;20741;-70
2022/03/09 00:19:11;;;;;;;;;;;;;;;-2.24;62.14;101797.69;1719215;82;20184;-70
2022/03/09 00:21:37;;;;;;;;;;;;;;;-2.26;62.16;101796.73;1701546;82;20209;-70
2022/03/09 00:24:03;;;;;;;;;;;;;;;-2.27;62.12;101791.58;1715377;82;20199;-70
2022/03/09 00:26:29;;;;;;;;;;;;;;;-2.31;62.08;101789.67;1717348;82;20219;-70
2022/03/09 00:28:55;;;;;;;;;;;;;;;-2.34;62.13;101792.91;1717644;82;20904;-70
2022/03/09 00:31:21;;;;;;;;;;;;;;;-2.34;62.26;101794.17;1730523;82;20226;-70
2022/03/09 00:33:47;;;;;;;;;;;;;;;-2.34;62.31;101785.31;1730268;82;20455;-70
2022/03/09 00:36:13;;;;;;;;;;;;;;;-2.35;62.27;101788.23;1718560;82;20615;-70
2022/03/09 00:38:39;;;;;;;;;;;;;;;-2.38;62.20;101785.53;1718617;82;20817;-70
2022/03/09 00:41:05;;;;;;;;;;;;;;;-2.41;62.23;101786.63;1722102;82;20230;-70
2022/03/09 00:43:30;;;;;;;;;;;;;;;-2.45;62.26;101788.52;1701170;82;20227;-70
2022/03/09 00:46:03;;;;;;;;;;;;;;;-2.46;62.35;101796.03;1709796;82;20176;-70
2022/03/09 00:48:29;;;;;;;;;;;;;;;-2.49;62.24;101789.52;1730321;82;20185;-70
2022/03/09 00:50:55;;;;;;;;;;;;;;;-2.52;62.31;101799.48;1730365;82;20261;-70
2022/03/09 00:53:24;;;;;;;;;;;;;;;-2.57;62.28;101791.63;1730073;82;20350;-70
2022/03/09 00:55:50;;;;;;;;;;;;;;;-2.60;62.35;101792.76;1702616;82;20180;-70
2022/03/09 00:58:15;;;;;;;;;;;;;;;-2.62;62.46;101788.00;1701335;83;20240;-70
2022/03/09 01:00:42;;;;;;;;;;;;;;;-2.63;62.46;101796.78;1701039;82;20227;-70
2022/03/09 01:03:07;;;;;;;;;;;;;;;-2.65;62.47;101805.55;1701315;82;20204;-70
2022/03/09 01:05:33;;;;;;;;;;;;;;;-2.68;62.49;101797.39;1702108;82;20175;-70
2022/03/09 01:07:59;;;;;;;;;;;;;;;-2.69;62.46;101793.51;1701433;83;20697;-70
2022/03/09 01:10:25;;;;;;;;;;;;;;;-2.70;62.46;101797.70;1701398;83;20117;-70
2022/03/09 01:12:50;;;;;;;;;;;;;;;-2.74;62.51;101797.05;1701552;84;20164;-70
2022/03/09 01:15:16;;;;;;;;;;;;;;;-2.77;62.55;101795.61;1704301;82;20228;-70
2022/03/09 01:17:42;;;;;;;;;;;;;;;-2.82;62.59;101794.48;1730261;82;21563;-70
2022/03/09 01:20:09;;;;;;;;;;;;;;;-2.82;62.57;101794.87;1730581;82;20557;-70
2022/03/09 01:22:35;;;;;;;;;;;;;;;-2.86;62.62;101795.48;1716163;82;20149;-70
2022/03/09 01:25:01;;;;;;;;;;;;;;;-2.84;62.71;101793.52;1701469;83;20209;-70
2022/03/09 01:27:26;;;;;;;;;;;;;;;-2.84;62.65;101789.72;1702858;82;20187;-70
2022/03/09 01:29:52;;;;;;;;;;;;;;;-2.82;62.81;101791.07;1721139;82;20252;-70
2022/03/09 01:32:21;;;;;;;;;;;;;;;-2.81;62.73;101791.55;1716971;82;20855;-70
2022/03/09 01:34:45;;;;;;;;;;;;;;;-2.84;62.68;101787.19;1701882;82;20208;-70
2022/03/09 01:37:11;;;;;;;;;;;;;;;-2.85;62.74;101785.84;1726569;82;21631;-70
2022/03/09 01:39:37;;;;;;;;;;;;;;;-2.87;62.80;101784.48;1729975;82;20189;-70
2022/03/09 01:42:03;;;;;;;;;;;;;;;-2.89;62.75;101780.99;1729882;82;20583;-70
2022/03/09 01:44:30;;;;;;;;;;;;;;;-2.92;62.72;101780.81;1729487;82;20123;-70
2022/03/09 01:46:56;;;;;;;;;;;;;;;-2.94;62.84;101779.86;1729039;82;20166;-70
2022/03/09 01:49:23;;;;;;;;;;;;;;;-2.96;62.86;101778.90;1706173;82;20756;-70
2022/03/09 01:51:51;;;;;;;;;;;;;;;-2.98;62.93;101783.39;1703262;83;20102;-70
2022/03/09 01:54:17;;;;;;;;;;;;;;;-2.97;62.97;101786.40;1702981;82;20103;-70
2022/03/09 01:56:43;;;;;;;;;;;;;;;-2.95;63.13;101792.42;1724437;82;20134;-70
2022/03/09 01:59:11;;;;;;;;;;;;;;;-2.96;63.00;101795.34;1732427;82;20091;-70
2022/03/09 02:01:38;;;;;;;;;;;;;;;-2.98;62.92;101794.77;1720328;82;20112;-70
2022/03/09 02:04:04;;;;;;;;;;;;;;;-2.98;63.09;101803.23;1727126;82;20441;-70
2022/03/09 02:06:32;;;;;;;;;;;;;;;-2.99;62.99;101798.96;1703042;83;20098;-70
2022/03/09 02:11:43;;;;;;;;;;;;;;;-3.07;63.05;101792.59;1709867;82;20105;-70
2022/03/09 02:14:30;;;;;;;;;;;;;;;-3.10;63.11;101793.67;1703387;82;20134;-70
2022/03/09 02:16:57;;;;;;;;;;;;;;;-3.11;63.12;101793.19;1715193;81;20086;-70
2022/03/09 02:19:23;;;;;;;;;;;;;;;-3.15;63.20;101799.77;1703349;82;20426;-70
2022/03/09 02:21:55;;;;;;;;;;;;;;;-3.19;63.12;101796.58;1703274;82;20176;-70
2022/03/09 02:24:22;;;;;;;;;;;;;;;-3.19;63.22;101796.58;1702651;82;20105;-70
2022/03/09 02:26:49;;;;;;;;;;;;;;;-3.19;63.18;101794.05;1713809;82;20451;-70
2022/03/09 02:29:14;;;;;;;;;;;;;;;-3.22;63.16;101792.61;1720666;82;20757;-70
2022/03/09 02:31:40;;;;;;;;;;;;;;;-3.24;63.20;101789.11;1715278;82;20196;-70
2022/03/09 02:34:06;;;;;;;;;;;;;;;-3.25;63.23;101792.81;1700790;82;20113;-70
2022/03/09 02:36:33;;;;;;;;;;;;;;;-3.25;63.26;101790.28;1708705;82;20509;-70
2022/03/09 02:38:59;;;;;;;;;;;;;;;-3.26;63.19;101783.48;1730132;82;20250;-71
2022/03/09 02:41:28;;;;;;;;;;;;;;;-3.27;63.33;101780.47;1730145;82;20218;-71
2022/03/09 02:43:52;;;;;;;;;;;;;;;-3.30;63.17;101779.91;1711265;82;125808;-70
2022/03/09 02:46:18;;;;;;;;;;;;;;;-3.32;63.22;101786.52;1715586;82;20126;-70
2022/03/09 02:48:48;;;;;;;;;;;;;;;-3.31;63.30;101784.88;1732611;82;20134;-70
2022/03/09 02:51:15;;;;;;;;;;;;;;;-3.32;63.25;101781.86;1730495;82;20415;-70
2022/03/09 02:53:41;;;;;;;;;;;;;;;-3.37;63.28;101787.91;1703160;82;20144;-70
2022/03/09 02:56:07;;;;;;;;;;;;;;;-3.38;63.30;101789.96;1701212;83;20176;-70
2022/03/09 02:58:32;;;;;;;;;;;;;;;-3.40;63.38;101781.41;1727303;83;20225;-70
2022/03/09 03:00:58;;;;;;;;;;;;;;;-3.42;63.41;101785.50;1729923;82;20119;-70
2022/03/09 03:03:24;;;;;;;;;;;;;;;-3.43;63.43;101787.55;1730032;82;20170;-70
2022/03/09 03:05:50;;;;;;;;;;;;;;;-3.44;63.46;101790.47;1730003;83;20199;-70
2022/03/09 03:08:15;;;;;;;;;;;;;;;-3.44;63.55;101784.54;1728722;83;20252;-70
2022/03/09 03:10:42;;;;;;;;;;;;;;;-3.44;63.68;101780.75;1723213;82;20220;-71
2022/03/09 03:13:07;;;;;;;;;;;;;;;-3.43;63.65;101787.16;1700724;83;20105;-70
2022/03/09 03:15:33;;;;;;;;;;;;;;;-3.41;63.69;101786.86;1714335;81;20576;-71
2022/03/09 03:18:01;;;;;;;;;;;;;;;-3.42;63.64;101784.23;1750308;81;20180;-71
2022/03/09 03:20:27;;;;;;;;;;;;;;;-3.44;63.54;101786.68;1760033;81;20124;-70
2022/03/09 03:22:52;;;;;;;;;;;;;;;-3.43;63.57;101785.89;1738816;81;20204;-70
2022/03/09 03:25:18;;;;;;;;;;;;;;;-3.45;63.53;101784.93;1700767;83;20196;-70
2022/03/09 03:27:44;;;;;;;;;;;;;;;-3.49;63.48;101788.45;1700710;84;20220;-70
2022/03/09 03:30:10;;;;;;;;;;;;;;;-3.54;63.54;101797.02;1700808;84;21123;-70
2022/03/09 03:32:43;;;;;;;;;;;;;;;-3.56;63.55;101795.19;1701302;83;20105;-70
2022/03/09 03:35:10;;;;;;;;;;;;;;;-3.59;63.55;101793.73;1713744;83;20176;-70
2022/03/09 03:37:37;;;;;;;;;;;;;;;-3.60;63.56;101793.26;1700758;84;20122;-70
2022/03/09 03:40:03;;;;;;;;;;;;;;;-3.61;63.60;101796.17;1700802;84;20130;-70
2022/03/09 03:42:29;;;;;;;;;;;;;;;-3.63;63.62;101793.95;1700993;83;20093;-70
2022/03/09 03:44:54;;;;;;;;;;;;;;;-3.63;63.67;101800.66;1724993;83;20158;-70
2022/03/09 03:47:20;;;;;;;;;;;;;;;-3.67;63.71;101797.11;1729692;83;20217;-70
2022/03/09 03:49:46;;;;;;;;;;;;;;;-3.68;63.69;101799.15;1729690;83;20134;-70
2022/03/09 03:52:18;;;;;;;;;;;;;;;-3.72;63.74;101796.83;1729581;83;20147;-70
2022/03/09 03:54:44;;;;;;;;;;;;;;;-3.73;63.74;101800.53;1719876;82;20208;-70
2022/03/09 03:57:09;;;;;;;;;;;;;;;-3.75;63.76;101808.02;1714738;83;20217;-70
2022/03/09 03:59:35;;;;;;;;;;;;;;;-3.77;63.77;101808.31;1729892;82;20150;-70
2022/03/09 04:02:01;;;;;;;;;;;;;;;-3.80;63.77;101809.39;1718683;83;20213;-70
2022/03/09 04:04:27;;;;;;;;;;;;;;;-3.81;63.79;101805.50;1700830;83;20085;-70
2022/03/09 04:06:53;;;;;;;;;;;;;;;-3.83;63.76;101803.27;1703696;83;20699;-70
2022/03/09 04:09:19;;;;;;;;;;;;;;;-3.86;63.79;101805.22;1729960;82;20766;-70
2022/03/09 04:11:44;;;;;;;;;;;;;;;-3.87;63.86;101803.48;1729926;82;20158;-70
2022/03/09 04:14:10;;;;;;;;;;;;;;;-3.88;63.84;101803.38;1722493;83;20148;-70
2022/03/09 04:16:36;;;;;;;;;;;;;;;-3.89;63.83;101802.90;1706200;81;20156;-70
2022/03/09 04:19:01;;;;;;;;;;;;;;;-3.91;63.84;101800.67;1716523;82;20154;-70
2022/03/09 04:21:28;;;;;;;;;;;;;;;-3.93;63.87;101798.05;1703550;82;20484;-71
2022/03/09 04:23:56;;;;;;;;;;;;;;;-3.92;63.94;101809.90;1700373;84;20105;-70
2022/03/09 04:26:23;;;;;;;;;;;;;;;-3.95;64.13;101816.03;1714915;83;20087;-70
2022/03/09 04:28:48;;;;;;;;;;;;;;;-3.96;64.09;101813.02;1708169;83;20160;-70
2022/03/09 04:31:14;;;;;;;;;;;;;;;-3.95;64.21;101813.89;1712597;83;20178;-71
2022/03/09 04:33:40;;;;;;;;;;;;;;;-3.95;64.20;101810.98;1722689;83;20103;-71
2022/03/09 04:36:06;;;;;;;;;;;;;;;-3.92;64.23;101811.55;1725686;83;20099;-70
2022/03/09 04:38:31;;;;;;;;;;;;;;;-3.92;64.16;101807.77;1728577;83;20107;-70
2022/03/09 04:40:57;;;;;;;;;;;;;;;-3.93;64.14;101805.63;1728853;82;20158;-70
2022/03/09 04:43:25;;;;;;;;;;;;;;;-3.93;64.03;101806.02;1712682;83;20321;-70
2022/03/09 04:45:51;;;;;;;;;;;;;;;-3.96;64.04;101810.88;1707457;83;20194;-70
2022/03/09 04:48:17;;;;;;;;;;;;;;;-3.98;64.13;101816.23;1726864;83;20233;-70
2022/03/09 04:50:42;;;;;;;;;;;;;;;-4.01;64.19;101813.13;1710218;83;20165;-71
2022/03/09 04:53:08;;;;;;;;;;;;;;;-4.01;64.18;101820.70;1726648;82;20186;-70
2022/03/09 04:55:34;;;;;;;;;;;;;;;-4.04;64.11;101815.45;1727081;82;20194;-70
2022/03/09 04:58:00;;;;;;;;;;;;;;;-4.07;64.10;101822.84;1727557;82;20852;-70
2022/03/09 05:00:26;;;;;;;;;;;;;;;-4.10;64.12;101824.80;1721035;81;20356;-70
2022/03/09 05:02:52;;;;;;;;;;;;;;;-4.12;64.12;101821.69;1749500;81;20227;-70
2022/03/09 05:05:17;;;;;;;;;;;;;;;-4.14;64.29;101828.30;1734969;81;20373;-71
2022/03/09 05:07:43;;;;;;;;;;;;;;;-4.14;64.40;101834.22;1724531;81;20178;-70
2022/03/09 05:10:12;;;;;;;;;;;;;;;-4.14;64.29;101834.22;1723553;83;20199;-70
2022/03/09 05:12:38;;;;;;;;;;;;;;;-4.17;64.24;101830.27;1722573;83;20185;-70
2022/03/09 05:15:07;;;;;;;;;;;;;;;-4.19;64.24;101833.09;1736657;81;20210;-74
2022/03/09 05:17:42;;;;;;;;;;;;;;;-4.20;64.27;101840.18;1727116;82;20171;-75
2022/03/09 05:20:09;;;;;;;;;;;;;;;-4.21;64.32;101838.82;1729272;83;20103;-75
2022/03/09 05:22:35;;;;;;;;;;;;;;;-4.21;64.36;101837.56;1714272;82;20106;-74
2022/03/09 05:25:01;;;;;;;;;;;;;;;-4.21;64.38;101837.56;1702110;83;20204;-75
2022/03/09 05:27:27;;;;;;;;;;;;;;;-4.18;64.62;101836.48;1716821;83;20415;-75
2022/03/09 05:29:53;;;;;;;;;;;;;;;-4.14;64.52;101842.19;1728307;82;20103;-75
2022/03/09 05:32:19;;;;;;;;;;;;;;;-4.13;64.53;101844.80;1712088;83;20360;-74
2022/03/09 05:34:46;;;;;;;;;;;;;;;-4.13;64.49;101840.14;1724759;81;20178;-74
2022/03/09 05:37:12;;;;;;;;;;;;;;;-4.13;64.44;101830.04;1726742;81;20115;-74
2022/03/09 05:39:38;;;;;;;;;;;;;;;-4.13;64.41;101839.75;1728138;83;20091;-75
2022/03/09 05:42:05;;;;;;;;;;;;;;;-4.12;64.46;101835.58;1727544;83;20162;-75
2022/03/09 05:44:30;;;;;;;;;;;;;;;-4.12;64.45;101836.84;1708162;81;20163;-75
2022/03/09 05:46:57;;;;;;;;;;;;;;;-4.13;64.67;101841.41;1727207;81;20176;-74
2022/03/09 05:49:23;;;;;;;;;;;;;;;-4.10;64.70;101841.20;1718655;81;20151;-74
2022/03/09 05:51:52;;;;;;;;;;;;;;;-4.07;64.71;101844.31;1719173;81;20128;-74
2022/03/09 05:54:19;;;;;;;;;;;;;;;-4.03;64.68;101850.91;1732533;81;20095;-77
2022/03/09 05:56:45;;;;;;;;;;;;;;;-3.98;64.72;101846.55;1720632;81;20154;-77
2022/03/09 05:59:11;;;;;;;;;;;;;;;-3.90;64.81;101847.50;1713152;81;20442;-83
2022/03/09 06:01:37;;;;;;;;;;;;;;;-3.75;65.11;101847.19;1741189;81;20843;-81
2022/03/09 06:04:04;;;;;;;;;;;;;;;-3.59;65.14;101848.95;1727307;81;20111;-82
2022/03/09 06:06:31;;;;;;;;;;;;;;;-3.41;65.20;101851.73;1721874;81;20217;-80
2022/03/09 06:08:57;;;;;;;;;;;;;;;-3.21;65.26;101850.38;1716884;81;20220;-80
2022/03/09 06:11:24;;;;;;;;;;;;;;;-2.95;65.40;101852.76;1726141;81;20151;-80
2022/03/09 06:13:50;;;;;;;;;;;;;;;-2.71;65.46;101847.84;1731002;81;20462;-80
2022/03/09 06:16:16;;;;;;;;;;;;;;;-2.45;65.49;101849.69;1717165;81;20198;-81
2022/03/09 06:18:42;;;;;;;;;;;;;;;-2.19;65.56;101844.41;1719947;81;20198;-81
2022/03/09 06:21:07;;;;;;;;;;;;;;;-1.87;65.66;101847.41;1737901;81;20183;-80
2022/03/09 06:23:33;;;;;;;;;;;;;;;-1.57;65.62;101841.83;1721008;81;20849;-80
2022/03/09 06:26:00;;;;;;;;;;;;;;;-1.26;65.68;101840.45;1716056;80;20201;-80
2022/03/09 06:28:26;;;;;;;;;;;;;;;-0.94;65.69;101838.25;1723999;81;20130;-79
2022/03/09 06:30:52;;;;;;;;;;;;;;;-0.65;65.64;101844.78;1711054;81;20204;-79
2022/03/09 06:33:18;;;;;;;;;;;;;;;-0.34;65.73;101843.29;1724238;81;20776;-79
2022/03/09 06:35:44;;;;;;;;;;;;;;;-0.09;65.62;101842.78;1733915;81;20150;-80
2022/03/09 06:38:10;;;;;;;;;;;;;;;0.15;65.62;101839.20;1729039;81;20748;-80
2022/03/09 06:40:36;;;;;;;;;;;;;;;0.43;65.70;101833.69;1712511;81;20877;-81
2022/03/09 06:43:02;;;;;;;;;;;;;;;0.65;65.70;101837.63;1718362;81;20842;-80
2022/03/09 06:45:28;;;;;;;;;;;;;;;0.96;65.73;101833.45;1719716;81;20803;-80
2022/03/09 06:47:55;;;;;;;;;;;;;;;1.24;65.72;101829.95;1704662;81;20192;-79
2022/03/09 06:50:21;;;;;;;;;;;;;;;1.53;65.75;101828.59;1695415;81;20182;-81
2022/03/09 06:52:48;;;;;;;;;;;;;;;1.75;65.62;101835.78;1711286;81;20476;-80
2022/03/09 06:55:13;;;;;;;;;;;;;;;1.94;65.67;101828.91;1721704;82;20178;-80
2022/03/09 06:57:40;;;;;;;;;;;;;;;2.16;65.74;101828.42;1720227;81;20766;-80
2022/03/09 07:00:11;;;;;;;;;;;;;;;2.41;65.86;101825.97;1720457;82;20175;-80
2022/03/09 07:02:37;;;;;;;;;;;;;;;2.65;65.84;101828.50;1718295;83;20113;-79
2022/03/09 07:05:04;;;;;;;;;;;;;;;2.94;65.93;101830.39;1717979;81;20095;-79
2022/03/09 07:07:30;;;;;;;;;;;;;;;3.35;66.03;101832.17;1729664;81;20103;-80
2022/03/09 07:09:56;;;;;;;;;;;;;;;3.70;65.79;101834.97;1707772;81;20118;-80
2022/03/09 07:12:22;;;;;;;;;;;;;;;3.89;65.60;101834.72;1712571;83;20253;-79
2022/03/09 07:14:48;;;;;;;;;;;;;;;3.93;65.47;101833.58;1706795;83;20773;-81
2022/03/09 07:17:14;;;;;;;;;;;;;;;3.96;65.61;101831.11;1714229;81;20519;-80
2022/03/09 07:19:39;;;;;;;;;;;;;;;4.04;65.60;101835.59;1708341;83;20166;-80
2022/03/09 07:22:06;;;;;;;;;;;;;;;4.02;65.58;101832.12;1720179;82;20162;-80
2022/03/09 07:24:33;;;;;;;;;;;;;;;4.04;65.77;101839.44;1727722;82;20466;-83
2022/03/09 07:26:59;;;;;;;;;;;;;;;4.15;65.79;101838.94;1720726;82;20130;-81
2022/03/09 07:29:25;;;;;;;;;;;;;;;4.26;65.77;101833.69;1710227;81;20454;-80
2022/03/09 07:31:53;;;;;;;;;;;;;;;4.33;65.58;101836.02;1714121;83;20793;-79
2022/03/09 07:34:22;;;;;;;;;;;;;;;4.40;65.72;101833.22;1713390;83;20199;-79
2022/03/09 07:36:53;;;;;;;;;;;;;;;4.56;65.75;101828.99;1714070;81;20434;-81
2022/03/09 07:39:19;;;;;;;;;;;;;;;4.55;65.65;101835.81;1728234;82;20171;-81
2022/03/09 07:41:51;;;;;;;;;;;;;;;4.55;65.90;101842.63;1728061;82;20450;-80
2022/03/09 07:44:17;;;;;;;;;;;;;;;4.62;65.95;101836.85;1721720;83;20254;-80
2022/03/09 07:46:43;;;;;;;;;;;;;;;4.66;65.77;101843.80;1717038;83;20205;-80
2022/03/09 07:49:10;;;;;;;;;;;;;;;4.75;65.78;101847.86;1693014;82;287283;-80
2022/03/09 07:51:35;;;;;;;;;;;;;;;4.94;65.88;101845.38;1692576;83;20833;-81
2022/03/09 07:54:01;;;;;;;;;;;;;;;5.05;65.79;101850.38;1696054;83;20740;-80
2022/03/09 07:56:30;;;;;;;;;;;;;;;5.12;65.90;101854.84;1699537;84;20523;-80
2022/03/09 07:58:56;;;;;;;;;;;;;;;5.27;65.92;101862.91;1678117;84;20481;-80
2022/03/09 08:01:22;;;;;;;;;;;;;;;5.32;66.19;101858.76;1661639;84;20287;-80
2022/03/09 08:03:48;;;;;;;;;;;;;;;5.31;66.15;101860.87;1667739;84;20834;-80
2022/03/09 08:06:14;;;;;;;;;;;;;;;5.22;66.06;101857.20;1653587;84;20155;-80
2022/03/09 08:08:40;;;;;;;;;;;;;;;5.20;65.97;101856.33;1661117;84;20673;-80
2022/03/09 08:11:06;;;;;;;;;;;;;;;5.21;66.08;101860.59;1661023;84;20213;-80
2022/03/09 08:13:34;;;;;;;;;;;;;;;5.19;66.33;101861.00;1666471;84;20133;-81
2022/03/09 08:16:00;;;;;;;;;;;;;;;5.13;66.33;101864.27;1657333;84;20762;-81
2022/03/09 08:18:25;;;;;;;;;;;;;;;5.18;66.33;101863.98;1676800;84;20227;-81
2022/03/09 08:20:51;;;;;;;;;;;;;;;5.22;66.21;101854.22;1665568;84;20776;-81
2022/03/09 08:23:17;;;;;;;;;;;;;;;5.25;66.03;101867.54;1661848;84;20199;-81
2022/03/09 08:25:43;;;;;;;;;;;;;;;5.19;65.68;101863.16;1665326;84;20214;-80
2022/03/09 08:28:09;;;;;;;;;;;;;;;5.15;65.76;101870.72;1665392;84;20755;-81
2022/03/09 08:30:37;;;;;;;;;;;;;;;5.19;65.84;101871.26;1677215;84;20190;-80
2022/03/09 08:33:02;;;;;;;;;;;;;;;5.17;65.78;101869.94;1669661;84;20528;-74
2022/03/09 08:35:28;;;;;;;;;;;;;;;5.21;65.76;101867.87;1655964;84;20323;-73
2022/03/09 08:37:54;;;;;;;;;;;;;;;5.27;65.86;101864.19;1670652;84;20841;-74
2022/03/09 08:40:19;;;;;;;;;;;;;;;5.33;65.58;101868.19;1664715;84;20283;-74
2022/03/09 08:42:46;;;;;;;;;;;;;;;5.21;65.16;101869.57;1673881;84;20217;-74
2022/03/09 08:45:12;;;;;;;;;;;;;;;5.11;65.44;101874.03;1668199;84;20630;-74
2022/03/09 08:47:39;;;;;;;;;;;;;;;5.12;65.62;101873.20;1657023;84;20329;-77
2022/03/09 08:50:06;;;;;;;;;;;;;;;5.17;65.60;101878.04;1681927;84;20139;-77
2022/03/09 08:52:32;;;;;;;;;;;;;;;5.15;65.51;101870.72;1653275;84;20128;-76
2022/03/09 08:54:58;;;;;;;;;;;;;;;5.17;65.56;101876.76;1663086;84;20161;-76
2022/03/09 08:57:24;;;;;;;;;;;;;;;5.13;65.50;101869.40;1663025;84;20269;-76
2022/03/09 08:59:50;;;;;;;;;;;;;;;5.06;65.29;101867.50;1693139;84;20591;-76
2022/03/09 09:02:15;;;;;;;;;;;;;;;4.94;65.18;101875.73;1684741;84;20297;-76
2022/03/09 09:04:42;;;;;;;;;;;;;;;4.83;65.33;101883.53;1699477;84;20204;-76
2022/03/09 09:07:07;;;;;;;;;;;;;;;4.85;65.52;101878.45;1699374;84;20128;-76
2022/03/09 09:09:33;;;;;;;;;;;;;;;4.90;65.42;101880.31;1679705;83;20230;-76
2022/03/09 09:12:01;;;;;;;;;;;;;;;4.88;65.33;101885.81;1727872;82;20770;-76
2022/03/09 09:14:28;;;;;;;;;;;;;;;4.88;65.31;101892.22;1708532;83;20179;-76
2022/03/09 09:16:54;;;;;;;;;;;;;;;4.86;65.18;101889.16;1705790;83;20169;-75
2022/03/09 09:19:20;;;;;;;;;;;;;;;4.80;65.10;101891.55;1688720;83;20453;-75
2022/03/09 09:21:46;;;;;;;;;;;;;;;4.75;65.10;101887.58;1695052;83;20164;-75
2022/03/09 09:24:13;;;;;;;;;;;;;;;4.72;65.14;101886.20;1698686;83;20137;-75
2022/03/09 09:26:39;;;;;;;;;;;;;;;4.73;65.16;101890.92;1706779;82;20408;-75
2022/03/09 09:29:05;;;;;;;;;;;;;;;4.76;65.22;101889.72;1698171;84;20275;-75
2022/03/09 09:31:32;;;;;;;;;;;;;;;4.75;65.04;101886.30;1697536;84;20149;-75
2022/03/09 09:33:57;;;;;;;;;;;;;;;4.73;65.04;101888.36;1695639;83;20085;-75
2022/03/09 09:36:23;;;;;;;;;;;;;;;4.71;65.05;101889.59;1699314;84;20207;-75
2022/03/09 09:38:49;;;;;;;;;;;;;;;4.73;65.06;101889.64;1692800;83;20219;-75
2022/03/09 09:41:18;;;;;;;;;;;;;;;4.73;64.94;101893.48;1680951;84;20273;-76
2022/03/09 09:43:44;;;;;;;;;;;;;;;4.74;64.96;101895.22;1690882;83;20224;-76
2022/03/09 09:46:13;;;;;;;;;;;;;;;4.75;64.94;101890.14;1683133;82;297692;-76
2022/03/09 09:48:40;;;;;;;;;;;;;;;4.76;64.86;101889.31;1680091;84;20205;-75
2022/03/09 09:51:09;;;;;;;;;;;;;;;4.77;64.84;101889.77;1695378;84;20236;-75
2022/03/09 09:53:35;;;;;;;;;;;;;;;4.78;64.83;101890.22;1696076;84;20528;-74
2022/03/09 09:56:03;;;;;;;;;;;;;;;4.80;64.79;101889.85;1683161;84;20203;-75
2022/03/09 09:58:29;;;;;;;;;;;;;;;4.84;64.73;101889.11;1684977;84;20213;-76
2022/03/09 10:00:57;;;;;;;;;;;;;;;4.87;64.74;101887.05;1690929;83;20650;-76
2022/03/09 10:03:23;;;;;;;;;;;;;;;4.90;64.74;101885.44;1691317;84;20172;-75
2022/03/09 10:05:51;;;;;;;;;;;;;;;4.94;64.58;101888.95;1690691;84;20176;-76
2022/03/09 10:08:18;;;;;;;;;;;;;;;4.91;64.49;101892.72;1690459;84;20183;-76
2022/03/09 10:10:47;;;;;;;;;;;;;;;4.88;64.53;101885.81;1683069;84;20128;-76
2022/03/09 10:13:19;;;;;;;;;;;;;;;4.94;64.60;101895.36;1691169;83;20108;-76
2022/03/09 10:15:47;;;;;;;;;;;;;;;4.99;64.53;101895.08;1693571;84;20563;-76
2022/03/09 10:18:19;;;;;;;;;;;;;;;5.05;64.51;101886.69;1687389;83;20180;-77
2022/03/09 10:20:47;;;;;;;;;;;;;;;5.06;64.45;101885.86;1700811;84;20678;-77
2022/03/09 10:23:13;;;;;;;;;;;;;;;5.13;64.63;101886.06;1691422;83;20191;-77
2022/03/09 10:25:40;;;;;;;;;;;;;;;5.21;64.40;101893.52;1692260;84;20785;-77
2022/03/09 10:28:08;;;;;;;;;;;;;;;5.24;64.38;101889.75;1689066;83;20183;-77
2022/03/09 10:30:37;;;;;;;;;;;;;;;5.27;64.35;101892.81;1714020;82;20268;-78
2022/03/09 10:33:05;;;;;;;;;;;;;;;5.32;64.40;101895.95;1685314;84;20418;-77
2022/03/09 10:35:34;;;;;;;;;;;;;;;5.37;64.36;101897.77;1692161;84;20137;-77
2022/03/09 10:38:04;;;;;;;;;;;;;;;5.42;64.39;101896.19;1681822;83;20472;-77
2022/03/09 10:40:31;;;;;;;;;;;;;;;5.46;64.36;101899.28;1700961;84;20129;-77
2022/03/09 10:43:13;;;;;;;;;;;;;;;5.49;64.33;101899.36;1689496;83;20092;-77
2022/03/09 10:46:05;;;;;;;;;;;;;;;5.53;64.24;101906.30;1698127;84;20133;-77
2022/03/09 10:49:02;;;;;;;;;;;;;;;5.54;64.28;101901.63;1695885;83;20159;-77
2022/03/09 10:51:31;;;;;;;;;;;;;;;5.55;64.25;101908.08;1686234;84;20112;-76
2022/03/09 10:53:58;;;;;;;;;;;;;;;5.62;64.37;101901.41;1691917;83;20108;-76
2022/03/09 10:56:24;;;;;;;;;;;;;;;5.71;64.37;101904.62;1675152;84;20107;-76
2022/03/09 10:58:50;;;;;;;;;;;;;;;5.75;64.26;101902.55;1679651;83;20117;-76
2022/03/09 11:01:20;;;;;;;;;;;;;;;5.76;64.20;101900.02;1752384;81;20162;-77
2022/03/09 11:03:47;;;;;;;;;;;;;;;5.78;64.20;101910.31;1702867;82;20109;-77
2022/03/09 11:06:14;;;;;;;;;;;;;;;5.76;64.15;101897.86;1688328;84;20108;-76
2022/03/09 11:08:41;;;;;;;;;;;;;;;5.75;64.18;101908.55;1696390;84;20094;-76
2022/03/09 11:11:08;;;;;;;;;;;;;;;5.77;64.12;101909.86;1700706;83;20161;-76
2022/03/09 11:13:38;;;;;;;;;;;;;;;5.77;64.12;101910.73;1691867;84;20108;-77
2022/03/09 11:16:05;;;;;;;;;;;;;;;5.75;64.03;101908.55;1701245;83;20110;-76
2022/03/09 11:18:32;;;;;;;;;;;;;;;5.72;64.20;101905.91;1678557;84;20257;-76
2022/03/09 11:21:02;;;;;;;;;;;;;;;5.77;64.31;101906.88;1701733;82;20136;-76
2022/03/09 11:23:30;;;;;;;;;;;;;;;5.81;64.27;101897.56;1695374;82;37973;-76
2022/03/09 11:26:12;;;;;;;;;;;;;;;5.84;64.24;101895.94;1704154;82;20183;-76
2022/03/09 11:28:40;;;;;;;;;;;;;;;5.86;64.24;101899.41;1710240;82;20526;-76
2022/03/09 11:31:09;;;;;;;;;;;;;;;5.89;64.12;101905.06;1699507;82;20133;-76
2022/03/09 11:33:50;;;;;;;;;;;;;;;5.87;64.15;101906.28;1724930;82;20183;-76
2022/03/09 11:36:27;;;;;;;;;;;;;;;5.89;64.14;101903.36;1678786;84;20205;-77
2022/03/09 11:39:12;;;;;;;;;;;;;;;5.91;64.15;101899.55;1702044;82;20206;-77
2022/03/09 11:41:40;;;;;;;;;;;;;;;5.94;64.20;101900.91;1702015;82;20189;-77
2022/03/09 11:44:24;;;;;;;;;;;;;;;6.00;64.12;101897.61;1702902;82;20216;-78
2022/03/09 11:47:02;;;;;;;;;;;;;;;6.02;64.12;101899.39;1704357;82;20230;-77
2022/03/09 11:49:37;;;;;;;;;;;;;;;6.08;64.12;101894.39;1691650;82;20174;-76
2022/03/09 11:52:09;;;;;;;;;;;;;;;6.13;64.17;101893.22;1704994;82;20207;-76
2022/03/09 11:54:55;;;;;;;;;;;;;;;6.16;64.16;101895.44;1710169;82;20636;-77
2022/03/09 11:57:23;;;;;;;;;;;;;;;6.21;64.08;101892.55;1708465;82;20103;-77
2022/03/09 12:00:08;;;;;;;;;;;;;;;6.25;64.03;101894.33;1696705;82;20145;-77
2022/03/09 12:02:44;;;;;;;;;;;;;;;6.26;64.00;101890.05;1699388;82;20119;-77
2022/03/09 12:05:29;;;;;;;;;;;;;;;6.33;64.16;101894.91;1703327;82;20439;-77
2022/03/09 12:08:03;;;;;;;;;;;;;;;6.40;64.02;101900.22;1696300;83;20389;-77
2022/03/09 12:10:44;;;;;;;;;;;;;;;6.47;64.07;101903.79;1701628;82;20131;-77
2022/03/09 12:13:43;;;;;;;;;;;;;;;6.52;64.01;101898.33;1701383;82;20091;-77
2022/03/09 12:16:22;;;;;;;;;;;;;;;6.57;63.99;101903.15;1705713;82;20193;-77
2022/03/09 12:19:01;;;;;;;;;;;;;;;6.62;63.97;101899.84;1708077;83;20568;-77
2022/03/09 12:21:33;;;;;;;;;;;;;;;6.67;63.86;101895.22;1703989;82;20212;-77
2022/03/09 12:24:06;;;;;;;;;;;;;;;6.72;63.88;101897.05;1712759;82;20335;-77
2022/03/09 12:26:46;;;;;;;;;;;;;;;6.78;63.88;101889.42;1697537;82;20236;-77
2022/03/09 12:29:26;;;;;;;;;;;;;;;6.84;63.82;101888.26;1700263;82;20611;-77
2022/03/09 12:32:07;;;;;;;;;;;;;;;6.88;63.77;101884.05;1704234;82;20344;-77
2022/03/09 12:34:36;;;;;;;;;;;;;;;6.90;63.77;101884.94;1708442;82;20399;-77
2022/03/09 12:37:05;;;;;;;;;;;;;;;6.94;63.63;101884.16;1691420;82;20148;-76
2022/03/09 12:39:31;;;;;;;;;;;;;;;6.95;63.66;101879.05;1713674;82;20133;-77
2022/03/09 12:41:59;;;;;;;;;;;;;;;7.01;63.66;101886.02;1711811;82;20166;-77
2022/03/09 12:44:28;;;;;;;;;;;;;;;7.09;63.52;101878.03;1708987;83;20194;-77
2022/03/09 12:47:03;;;;;;;;;;;;;;;7.09;63.46;101884.87;1696628;83;20665;-76